Bangalore Airport, India

3:54 AM IST on August 31, 2014 (GMT +0530)
Pride Orchid | Change Station
CLOSE
Current Station
Personal Weather Station
Location: Bangalore, KARNATAKA
Elevation: 2890 ft
Nearby Weather Stations

Elev 2890 ft 12.95 °N, 77.72 °E | Updated 4 minutes ago

Mostly Cloudy
Mostly Cloudy
69.4 °F
Feels Like 69.4 °F
N
6.0
Wind Variable Wind from WNW
Gusts 8.0 mph

Today
High -- | Low -- °F
--% Chance of Precip.
Yesterday
High -- | Low -- °F
Precip. -- in
6:08 AM 6:31 PM
Waxing Crescent, 25% visible
Pressure 29.77 in
Visibility 3.7 miles
Clouds Scattered Clouds 1200 ft
Mostly Cloudy 8000 ft
Dew Point 67 °F
Humidity 92%
Rainfall 0.00 in
Snow Depth Not available.
UV 0.0 out of 12
Pollen Not available.
Air Quality Not available.
Flu Activity Not available.
METAR VOBL 302200Z 25012KT 6000 SCT012 BKN080 24/22 Q1008 NOSIG

More Conditions Fewer Conditions

Pressure 29.77 in
Visibility 3.7 miles
Clouds Scattered Clouds 1200 ft
Mostly Cloudy 8000 ft
Dew Point 67 °F
Humidity 92%
Rainfall 0.00 in
Snow Depth Not available.
UV 0.0 out of 12
Pollen Not available.
Air Quality Not available.
Flu Activity Not available.
METAR VOBL 302200Z 25012KT 6000 SCT012 BKN080 24/22 Q1008 NOSIG

More Conditions Fewer Conditions

10-Day Weather Forecast

Almanac

Astronomy

Aug. 31, 2014 Rise Set
Actual Time 6:08 AM IST 6:31 PM IST
Civil Twilight 5:46 AM IST 6:52 PM IST
Nautical Twilight 5:21 AM IST 7:17 PM IST
Astronomical Twilight 4:56 AM IST 7:42 PM IST
Moon 10:30 AM IST (8/31) 10:26 PM IST (8/31)
Length of Visible Light 13h 05m
Length of Day
12h 22m
Tomorrow will be 0m 41s shorter.
Waxing Crescent, 25% of the Moon is Illuminated
Aug 30
Waxing Crescent
Sep 2
First Quarter
Sep 8
Full
Sep 15
Last Quarter
Sep 24
New

Yesterday's Extremes

Country Highs Country Lows

Community

WunderPhotos

Upload Photos

1,748,657 photos uploaded!

WunderBlogs® & News

Nearby

Snow Depth

Not available.

Earthquake Activity

City Distance Mag. Time & Date
No recent earthquake activity has been reported nearby.
Minimum magnitude displayed is 2.5.

Coastal Water Temperatures

Place Temperature
No Stations Reporting

Nearby Weather Stations